createdAt,value
2024-04-22T00:01:32.063Z,2.99
2024-04-22T00:04:01.639Z,2.80
2024-04-22T00:06:28.800Z,2.95
2024-04-22T00:08:58.734Z,2.99
2024-04-22T00:11:25.597Z,2.98
2024-04-22T00:13:57.626Z,2.93
2024-04-22T00:16:24.731Z,2.89
2024-04-22T00:18:54.217Z,2.88
2024-04-22T00:21:21.335Z,2.87
2024-04-22T00:23:51.024Z,2.86
2024-04-22T00:26:18.040Z,2.73
2024-04-22T00:28:47.714Z,2.58
2024-04-22T00:31:17.145Z,2.70
2024-04-22T00:33:46.716Z,2.63
2024-04-22T00:36:13.581Z,2.47
2024-04-22T00:38:43.000Z,2.56
2024-04-22T00:41:09.777Z,2.61
2024-04-22T00:43:39.566Z,2.64
2024-04-22T00:46:07.665Z,2.46
2024-04-22T00:48:40.290Z,2.65
2024-04-22T00:51:07.224Z,2.58
2024-04-22T00:53:37.441Z,2.46
2024-04-22T00:56:05.259Z,2.19
2024-04-22T00:58:35.099Z,2.39
2024-04-22T01:01:03.847Z,2.52
2024-04-22T01:03:33.934Z,2.53
2024-04-22T01:06:03.503Z,2.49
2024-04-22T01:08:33.055Z,2.46
2024-04-22T01:10:59.941Z,2.37
2024-04-22T01:13:29.488Z,2.38
2024-04-22T01:15:56.321Z,2.50
2024-04-22T01:18:25.797Z,2.50
2024-04-22T01:20:52.658Z,2.37
2024-04-22T01:23:24.957Z,2.32
2024-04-22T01:25:55.958Z,2.22
2024-04-22T01:28:25.574Z,2.05
2024-04-22T01:30:52.514Z,2.09
2024-04-22T01:33:22.113Z,1.99
2024-04-22T01:35:49.156Z,1.99
2024-04-22T01:38:19.057Z,1.96
2024-04-22T01:40:48.498Z,1.92
2024-04-22T01:43:18.141Z,1.75
2024-04-22T01:45:45.031Z,1.53
2024-04-22T01:48:14.724Z,1.87
2024-04-22T01:50:41.551Z,1.87
2024-04-22T01:53:11.121Z,1.76
2024-04-22T01:55:38.177Z,1.69
2024-04-22T01:58:10.386Z,1.61
2024-04-22T02:00:38.389Z,1.67
2024-04-22T02:03:08.074Z,1.72
2024-04-22T02:05:34.875Z,1.67
2024-04-22T02:08:04.233Z,1.55
2024-04-22T02:10:31.328Z,1.65
2024-04-22T02:13:00.754Z,1.68
2024-04-22T02:15:30.705Z,1.68
2024-04-22T02:18:01.796Z,1.84
2024-04-22T02:20:28.789Z,2.00
2024-04-22T02:22:58.457Z,2.11
2024-04-22T02:25:25.382Z,2.06
2024-04-22T02:27:55.578Z,1.79
2024-04-22T02:30:22.367Z,2.02
2024-04-22T02:32:54.494Z,1.94
2024-04-22T02:35:21.279Z,1.95
2024-04-22T02:37:50.768Z,1.95
2024-04-22T02:40:17.619Z,1.95
2024-04-22T02:42:47.302Z,1.93
2024-04-22T02:45:14.682Z,2.04
2024-04-22T02:47:44.160Z,1.97
2024-04-22T02:50:14.373Z,1.95
2024-04-22T02:52:44.140Z,1.92
2024-04-22T02:55:11.359Z,1.95
2024-04-22T02:57:41.093Z,1.81
2024-04-22T03:00:08.805Z,1.83
2024-04-22T03:02:39.120Z,2.03
2024-04-22T03:05:06.171Z,1.89
2024-04-22T03:07:38.318Z,1.92
2024-04-22T03:10:05.816Z,1.95
2024-04-22T03:12:36.136Z,2.03
2024-04-22T03:15:03.907Z,2.23
2024-04-22T03:17:33.682Z,2.26
2024-04-22T03:20:00.612Z,2.09
2024-04-22T03:22:29.977Z,2.22
2024-04-22T03:25:00.946Z,2.33
2024-04-22T03:27:30.675Z,2.25
2024-04-22T03:29:57.620Z,2.25
2024-04-22T03:32:27.485Z,2.19
2024-04-22T03:34:54.720Z,2.34
2024-04-22T03:37:24.176Z,2.27
2024-04-22T03:39:53.630Z,2.05
2024-04-22T03:42:25.863Z,2.27
2024-04-22T03:44:55.532Z,2.30
2024-04-22T03:47:41.086Z,2.33
2024-04-22T03:50:10.621Z,2.27
2024-04-22T03:52:40.239Z,2.26
2024-04-22T03:55:09.827Z,2.18
2024-04-22T03:57:42.181Z,2.10
2024-04-22T04:00:09.945Z,2.10
2024-04-22T04:02:39.416Z,1.84
2024-04-22T04:05:06.546Z,2.00
2024-04-22T04:07:35.974Z,1.95
2024-04-22T04:10:02.970Z,1.84
2024-04-22T04:12:32.657Z,1.93
2024-04-22T04:15:02.068Z,1.83
2024-04-22T04:17:31.780Z,1.73
2024-04-22T04:19:58.700Z,1.71
2024-04-22T04:22:28.446Z,1.50
2024-04-22T04:24:55.575Z,1.56
2024-04-22T04:27:25.094Z,1.59
2024-04-22T04:29:52.867Z,1.58
2024-04-22T04:32:25.322Z,1.68
2024-04-22T04:34:53.350Z,1.74
2024-04-22T04:37:23.007Z,1.63
2024-04-22T04:39:50.670Z,1.79
2024-04-22T04:42:20.221Z,1.65
2024-04-22T04:44:47.319Z,1.90
2024-04-22T04:47:17.135Z,1.82
2024-04-22T04:49:47.118Z,1.93
2024-04-22T04:52:16.708Z,2.00
2024-04-22T04:54:43.492Z,2.04
2024-04-22T04:57:13.082Z,2.04
2024-04-22T04:59:39.864Z,2.11
2024-04-22T05:02:09.815Z,2.11
2024-04-22T05:04:36.774Z,2.19
2024-04-22T05:07:09.828Z,2.25
2024-04-22T05:09:37.387Z,2.24
2024-04-22T05:12:07.554Z,2.29
2024-04-22T05:14:34.417Z,2.33
2024-04-22T05:17:04.036Z,2.43
2024-04-22T05:19:30.902Z,2.36
2024-04-22T05:22:00.706Z,2.49
2024-04-22T05:24:30.193Z,2.52
2024-04-22T05:26:59.825Z,2.66
2024-04-22T05:29:26.736Z,2.74
2024-04-22T05:31:56.628Z,2.73
2024-04-22T05:34:53.626Z,2.68
2024-04-22T05:37:23.104Z,2.76
2024-04-22T05:39:55.156Z,2.86
2024-04-22T05:42:24.844Z,2.80
2024-04-22T05:44:54.309Z,2.82
2024-04-22T05:47:23.905Z,2.82
2024-04-22T05:49:51.099Z,2.82
2024-04-22T05:52:21.469Z,2.82
2024-04-22T05:54:51.517Z,2.82
2024-04-22T05:57:20.918Z,2.81
2024-04-22T05:59:50.387Z,2.64
2024-04-22T06:02:19.984Z,2.52
2024-04-22T06:04:46.845Z,2.84
2024-04-22T06:07:16.402Z,2.91
2024-04-22T06:09:43.303Z,2.84
2024-04-22T06:12:18.776Z,2.86
2024-04-22T06:14:49.421Z,2.85
2024-04-22T06:17:18.900Z,2.77
2024-04-22T06:19:45.773Z,2.89
2024-04-22T06:22:15.220Z,2.85
2024-04-22T06:24:42.031Z,2.86
2024-04-22T06:27:11.654Z,2.88
2024-04-22T06:29:38.747Z,2.92
2024-04-22T06:32:10.962Z,3.03
2024-04-22T06:34:37.863Z,3.05
2024-04-22T06:37:07.883Z,3.12
2024-04-22T06:39:34.754Z,3.17
2024-04-22T06:42:04.343Z,3.25
2024-04-22T06:44:31.118Z,3.31
2024-04-22T06:47:01.779Z,3.27
2024-04-22T06:49:31.265Z,3.19
2024-04-22T06:52:00.935Z,3.34
2024-04-22T06:54:27.813Z,3.41
2024-04-22T06:56:57.609Z,3.41
2024-04-22T06:59:24.474Z,3.48
2024-04-22T07:01:53.920Z,3.57
2024-04-22T07:04:21.234Z,3.73
2024-04-22T07:06:53.283Z,3.77
2024-04-22T07:09:20.316Z,3.87
2024-04-22T07:11:49.743Z,3.71
2024-04-22T07:14:20.764Z,3.80
2024-04-22T07:16:57.116Z,4.00
2024-04-22T07:19:24.072Z,4.16
2024-04-22T07:21:57.583Z,4.22
2024-04-22T07:24:26.654Z,4.31
2024-04-22T07:26:57.953Z,4.30
2024-04-22T07:29:25.358Z,4.56
2024-04-22T07:31:55.594Z,4.66
2024-04-22T07:34:23.111Z,4.64
2024-04-22T07:37:05.382Z,4.80
2024-04-22T07:39:35.583Z,4.85
2024-04-22T07:42:05.419Z,4.80
2024-04-22T07:44:35.213Z,4.88
2024-04-22T07:47:02.111Z,4.67
2024-04-22T07:49:31.494Z,4.62
2024-04-22T07:52:01.201Z,4.89
2024-04-22T07:54:33.002Z,5.20
2024-04-22T07:57:02.987Z,5.47
2024-04-22T07:59:30.324Z,5.71
2024-04-22T08:02:00.605Z,5.77
2024-04-22T08:04:28.007Z,5.75
2024-04-22T08:07:04.168Z,6.12
2024-04-22T08:09:31.301Z,6.10
2024-04-22T08:12:02.716Z,6.17
2024-04-22T08:14:29.800Z,6.12
2024-04-22T08:16:59.281Z,5.74
2024-04-22T08:19:26.363Z,5.72
2024-04-22T08:21:55.763Z,5.85
2024-04-22T08:24:26.505Z,5.95
2024-04-22T08:26:57.473Z,5.97
2024-04-22T08:29:26.132Z,6.09
2024-04-22T08:31:56.063Z,6.12
2024-04-22T08:34:22.856Z,6.52
2024-04-22T08:36:52.373Z,6.59
2024-04-22T08:39:19.116Z,6.63
2024-04-22T08:41:51.468Z,6.66
2024-04-22T08:44:18.655Z,6.66
2024-04-22T08:46:48.052Z,6.78
2024-04-22T08:49:15.306Z,6.62
2024-04-22T08:51:45.168Z,6.75
2024-04-22T08:54:12.493Z,6.66
2024-04-22T08:56:42.674Z,6.90
2024-04-22T08:59:21.790Z,6.77
2024-04-22T09:02:02.612Z,7.04
2024-04-22T09:04:29.621Z,7.16
2024-04-22T09:06:59.363Z,7.19
2024-04-22T09:09:38.185Z,7.09
2024-04-22T09:12:20.933Z,7.24
2024-04-22T09:15:00.570Z,7.14
2024-04-22T09:17:30.434Z,7.25
2024-04-22T09:19:57.785Z,7.48
2024-04-22T09:22:27.422Z,7.70
2024-04-22T09:24:54.538Z,8.03
2024-04-22T09:27:27.847Z,7.76
2024-04-22T09:30:05.536Z,8.14
2024-04-22T09:32:36.303Z,8.31
2024-04-22T09:35:13.565Z,8.81
2024-04-22T09:37:47.482Z,8.92
2024-04-22T09:40:16.866Z,8.85
2024-04-22T09:42:47.438Z,9.09
2024-04-22T09:45:17.408Z,9.04
2024-04-22T09:47:48.076Z,8.67
2024-04-22T09:50:18.298Z,8.99
2024-04-22T09:52:51.414Z,9.10
2024-04-22T09:55:21.187Z,10.35
2024-04-22T09:57:50.081Z,10.85
2024-04-22T10:00:23.164Z,10.73
2024-04-22T10:02:52.205Z,10.95
2024-04-22T10:05:26.289Z,11.40
2024-04-22T10:07:54.429Z,11.71
2024-04-22T10:10:24.117Z,11.40
2024-04-22T10:13:24.425Z,10.82
2024-04-22T10:15:56.809Z,11.02
2024-04-22T10:18:24.020Z,9.81
2024-04-22T10:20:56.676Z,9.66
2024-04-22T10:23:23.914Z,10.28
2024-04-22T10:25:53.425Z,11.65
2024-04-22T10:28:20.613Z,12.54
2024-04-22T10:30:50.248Z,13.41
2024-04-22T10:33:19.678Z,14.18
2024-04-22T10:35:49.560Z,14.36
2024-04-22T10:38:16.571Z,14.23
2024-04-22T10:40:46.417Z,13.71
2024-04-22T10:43:13.280Z,13.67
2024-04-22T10:45:43.024Z,12.98
2024-04-22T10:48:15.806Z,12.42
2024-04-22T10:50:52.617Z,12.34
2024-04-22T10:53:21.388Z,12.61
2024-04-22T10:55:51.045Z,12.18
2024-04-22T10:58:18.286Z,12.42
2024-04-22T11:00:51.836Z,12.14
2024-04-22T11:03:19.743Z,11.65
2024-04-22T11:05:52.125Z,11.18
2024-04-22T11:08:19.679Z,11.07
2024-04-22T11:10:49.657Z,10.60
2024-04-22T11:13:16.916Z,10.28
2024-04-22T11:15:46.838Z,10.55
2024-04-22T11:18:13.668Z,10.41
2024-04-22T11:20:43.604Z,10.65
2024-04-22T11:23:13.357Z,11.35
2024-04-22T11:25:42.867Z,12.16
2024-04-22T11:28:09.711Z,11.39
2024-04-22T11:30:41.799Z,11.45
2024-04-22T11:33:09.272Z,11.04
2024-04-22T11:35:39.545Z,11.18
2024-04-22T11:38:13.773Z,11.18
2024-04-22T11:40:46.737Z,11.81
2024-04-22T11:43:13.910Z,12.67
2024-04-22T11:45:43.977Z,13.29
2024-04-22T11:48:11.120Z,12.91
2024-04-22T11:50:41.147Z,12.80
2024-04-22T11:53:14.930Z,12.41
2024-04-22T11:55:54.204Z,11.69
2024-04-22T11:58:21.483Z,11.61
2024-04-22T12:00:51.095Z,11.34
2024-04-22T12:03:17.886Z,10.40
2024-04-22T12:05:47.629Z,10.09
2024-04-22T12:08:14.518Z,9.95
2024-04-22T12:10:44.038Z,10.08
2024-04-22T12:13:14.179Z,10.25
2024-04-22T12:15:43.996Z,10.25
2024-04-22T12:18:10.933Z,10.38
2024-04-22T12:20:40.613Z,10.37
2024-04-22T12:23:07.493Z,10.63
2024-04-22T12:25:37.216Z,10.73
2024-04-22T12:28:13.428Z,10.92
2024-04-22T12:30:50.084Z,10.62
2024-04-22T12:33:17.152Z,10.31
2024-04-22T12:35:46.808Z,9.99
2024-04-22T12:38:13.607Z,9.63
2024-04-22T12:40:43.367Z,9.31
2024-04-22T12:43:10.643Z,9.26
2024-04-22T12:45:43.020Z,9.30
2024-04-22T12:48:31.222Z,9.12
2024-04-22T12:51:01.619Z,9.47
2024-04-22T12:53:31.674Z,9.45
2024-04-22T12:56:02.048Z,9.40
2024-04-22T12:58:32.461Z,9.35
2024-04-22T13:01:05.649Z,8.97
2024-04-22T13:03:38.327Z,8.96
2024-04-22T13:06:08.484Z,8.50
2024-04-22T13:08:37.862Z,8.40
2024-04-22T13:11:05.410Z,8.56
2024-04-22T13:13:35.071Z,8.77
2024-04-22T13:16:04.645Z,9.25
2024-04-22T13:18:34.130Z,9.41
2024-04-22T13:21:06.500Z,9.69
2024-04-22T13:23:33.430Z,9.95
2024-04-22T13:26:03.013Z,10.14
2024-04-22T13:28:30.058Z,10.34
2024-04-22T13:30:59.589Z,10.12
2024-04-22T13:33:26.562Z,10.07
2024-04-22T13:35:55.982Z,10.20
2024-04-22T13:38:25.445Z,10.11
2024-04-22T13:40:55.280Z,9.95
2024-04-22T13:43:24.698Z,9.54
2024-04-22T13:45:54.348Z,9.22
2024-04-22T13:48:21.366Z,9.16
2024-04-22T13:50:50.947Z,9.03
2024-04-22T13:53:26.106Z,8.79
2024-04-22T13:56:02.459Z,8.91
2024-04-22T13:58:29.292Z,9.13
2024-04-22T14:00:58.870Z,9.10
2024-04-22T14:03:25.819Z,8.94
2024-04-22T14:05:55.215Z,9.09
2024-04-22T14:08:22.283Z,9.25
2024-04-22T14:10:51.709Z,9.02
2024-04-22T14:13:21.546Z,9.33
2024-04-22T14:15:51.005Z,9.60
2024-04-22T14:18:17.994Z,9.85
2024-04-22T14:20:47.634Z,10.29
2024-04-22T14:23:15.182Z,10.49
2024-04-22T14:25:47.132Z,10.54
2024-04-22T14:28:14.241Z,10.73
2024-04-22T14:30:46.350Z,10.85
2024-04-22T14:33:14.337Z,10.61
2024-04-22T14:35:44.005Z,11.06
2024-04-22T14:38:11.425Z,11.20
2024-04-22T14:40:40.959Z,11.20
2024-04-22T14:43:07.819Z,11.12
2024-04-22T14:45:37.586Z,11.09
2024-04-22T14:48:08.000Z,11.53
2024-04-22T14:50:37.491Z,11.62
2024-04-22T14:53:07.708Z,11.67
2024-04-22T14:55:40.529Z,11.31
2024-04-22T14:58:07.806Z,11.48
2024-04-22T15:00:37.657Z,10.96
2024-04-22T15:03:07.311Z,11.11
2024-04-22T15:05:37.400Z,11.18
2024-04-22T15:08:04.947Z,11.50
2024-04-22T15:10:34.708Z,11.35
2024-04-22T15:13:01.554Z,11.42
2024-04-22T15:15:30.984Z,11.54
2024-04-22T15:17:57.954Z,11.37
2024-04-22T15:20:31.513Z,11.36
2024-04-22T15:22:58.600Z,11.13
2024-04-22T15:25:28.150Z,10.91
2024-04-22T15:27:54.955Z,10.79
2024-04-22T15:30:24.563Z,10.58
2024-04-22T15:32:51.517Z,10.48
2024-04-22T15:35:21.034Z,10.41
2024-04-22T15:37:52.500Z,10.44
2024-04-22T15:40:22.055Z,10.40
2024-04-22T15:42:53.602Z,10.26
2024-04-22T15:45:21.125Z,10.00
2024-04-22T15:47:50.740Z,10.10
2024-04-22T15:50:21.291Z,10.15
2024-04-22T15:52:51.031Z,10.15
2024-04-22T15:55:20.887Z,10.07
2024-04-22T15:57:50.767Z,9.83
2024-04-22T16:00:23.665Z,9.89
2024-04-22T16:02:50.457Z,9.75
2024-04-22T16:05:20.090Z,9.78
2024-04-22T16:07:47.049Z,9.59
2024-04-22T16:10:19.264Z,9.53
2024-04-22T16:12:46.386Z,9.50
2024-04-22T16:15:15.791Z,9.35
2024-04-22T16:17:42.819Z,9.28
2024-04-22T16:20:12.727Z,9.12
2024-04-22T16:22:39.554Z,9.16
2024-04-22T16:25:09.316Z,9.05
2024-04-22T16:27:39.027Z,9.24
2024-04-22T16:30:09.296Z,9.28
2024-04-22T16:32:36.221Z,9.21
2024-04-22T16:35:05.876Z,9.31
2024-04-22T16:37:33.033Z,9.22
2024-04-22T16:40:02.659Z,9.16
2024-04-22T16:42:29.484Z,8.92
2024-04-22T16:45:01.549Z,9.05
2024-04-22T16:47:28.652Z,9.04
2024-04-22T16:49:58.138Z,9.08
2024-04-22T16:52:25.022Z,8.85
2024-04-22T16:54:54.463Z,9.07
2024-04-22T16:57:21.703Z,9.07
2024-04-22T16:59:51.177Z,9.07
2024-04-22T17:02:20.884Z,8.84
2024-04-22T17:04:50.627Z,8.52
2024-04-22T17:07:17.477Z,8.10
2024-04-22T17:09:48.109Z,7.94
2024-04-22T17:12:15.068Z,7.70
2024-04-22T17:14:44.961Z,7.60
2024-04-22T17:17:11.834Z,7.22
2024-04-22T17:19:43.912Z,7.42
2024-04-22T17:22:10.993Z,7.31
2024-04-22T17:24:40.501Z,7.35
2024-04-22T17:27:08.607Z,7.29
2024-04-22T17:29:38.193Z,7.19
2024-04-22T17:32:05.926Z,7.03
2024-04-22T17:34:36.231Z,6.87
2024-04-22T17:37:06.108Z,6.77
2024-04-22T17:39:35.907Z,6.73
2024-04-22T17:42:02.899Z,6.65
2024-04-22T17:44:32.316Z,6.62
2024-04-22T17:46:59.809Z,6.55
2024-04-22T17:49:29.995Z,6.47
2024-04-22T17:51:56.893Z,6.51
2024-04-22T17:54:29.123Z,6.57
2024-04-22T17:57:02.307Z,6.51
2024-04-22T17:59:36.767Z,6.46
2024-04-22T18:02:04.033Z,6.39
2024-04-22T18:04:34.034Z,6.33
2024-04-22T18:07:00.904Z,6.35
2024-04-22T18:09:34.460Z,6.21
2024-04-22T18:12:02.210Z,6.20
2024-04-22T18:14:31.663Z,6.17
2024-04-22T18:16:59.720Z,6.14
2024-04-22T18:19:29.371Z,6.15
2024-04-22T18:22:01.602Z,6.12
2024-04-22T18:24:36.443Z,6.03
2024-04-22T18:27:03.418Z,6.12
2024-04-22T18:29:32.991Z,6.05
2024-04-22T18:31:59.749Z,5.93
2024-04-22T18:34:29.372Z,5.95
2024-04-22T18:36:56.611Z,5.82
2024-04-22T18:39:26.044Z,5.80
2024-04-22T18:41:55.677Z,5.80
2024-04-22T18:44:25.929Z,5.69
2024-04-22T18:46:52.896Z,5.55
2024-04-22T18:49:22.393Z,5.81
2024-04-22T18:51:49.481Z,5.87
2024-04-22T18:54:18.900Z,5.73
2024-04-22T18:56:49.066Z,5.74
2024-04-22T18:59:19.539Z,5.68
2024-04-22T19:01:49.048Z,5.63
2024-04-22T19:04:16.483Z,5.56
2024-04-22T19:06:45.956Z,5.50
2024-04-22T19:09:12.957Z,5.53
2024-04-22T19:11:43.399Z,5.48
2024-04-22T19:14:10.337Z,5.17
2024-04-22T19:16:42.487Z,5.26
2024-04-22T19:19:09.314Z,5.10
2024-04-22T19:21:39.625Z,5.05
2024-04-22T19:24:07.501Z,4.89
2024-04-22T19:26:37.077Z,4.88
2024-04-22T19:29:03.956Z,4.85
2024-04-22T19:31:34.663Z,4.74
2024-04-22T19:34:05.062Z,4.75
2024-04-22T19:36:34.513Z,4.68
2024-04-22T19:39:01.478Z,4.50
2024-04-22T19:41:31.661Z,4.71
2024-04-22T19:44:00.743Z,4.51
2024-04-22T19:46:32.186Z,4.64
2024-04-22T19:49:00.043Z,4.58
2024-04-22T19:51:32.363Z,4.66
2024-04-22T19:53:59.102Z,4.56
2024-04-22T19:56:29.078Z,4.65
2024-04-22T19:58:56.822Z,4.75
2024-04-22T20:01:26.282Z,4.81
2024-04-22T20:03:53.191Z,4.91
2024-04-22T20:06:22.703Z,4.90
2024-04-22T20:08:52.578Z,4.92
2024-04-22T20:11:22.230Z,4.78
2024-04-22T20:13:49.134Z,4.86
2024-04-22T20:16:20.726Z,4.90
2024-04-22T20:18:54.961Z,4.89
2024-04-22T20:21:24.752Z,4.79
2024-04-22T20:23:58.194Z,4.77
2024-04-22T20:26:25.378Z,4.89
2024-04-22T20:28:55.259Z,4.85
2024-04-22T20:31:22.500Z,4.81
2024-04-22T20:33:52.532Z,4.80
2024-04-22T20:36:21.606Z,4.83
2024-04-22T20:38:51.069Z,4.79
2024-04-22T20:41:20.643Z,4.74
2024-04-22T20:43:50.498Z,4.67
2024-04-22T20:46:17.446Z,4.72
2024-04-22T20:48:47.102Z,4.69
2024-04-22T20:51:14.273Z,4.63
2024-04-22T20:53:43.880Z,4.54
2024-04-22T20:56:11.019Z,4.51
2024-04-22T20:58:43.045Z,4.48
2024-04-22T21:01:10.716Z,4.39
2024-04-22T21:03:40.307Z,4.28
2024-04-22T21:06:08.314Z,4.41
2024-04-22T21:08:37.720Z,4.29
2024-04-22T21:11:05.078Z,4.30
2024-04-22T21:13:47.504Z,4.31
2024-04-22T21:16:14.283Z,4.26
2024-04-22T21:18:43.969Z,3.98
2024-04-22T21:21:10.817Z,4.16
2024-04-22T21:23:42.731Z,4.06
2024-04-22T21:26:09.817Z,3.92
2024-04-22T21:28:39.464Z,3.80
2024-04-22T21:31:09.105Z,3.62
2024-04-22T21:36:09.551Z,3.73
2024-04-22T21:38:38.947Z,3.61
2024-04-22T21:41:05.805Z,3.50
2024-04-22T21:43:36.093Z,3.36
2024-04-22T21:46:04.155Z,3.27
2024-04-22T21:48:36.628Z,3.28
2024-04-22T21:51:03.604Z,3.33
2024-04-22T21:53:33.070Z,3.27
2024-04-22T21:56:06.518Z,3.22
2024-04-22T21:59:13.553Z,3.13
2024-04-22T22:02:18.090Z,3.07
2024-04-22T22:05:24.951Z,3.07
2024-04-22T22:07:51.883Z,3.06
2024-04-22T22:10:24.195Z,3.04
2024-04-22T22:12:51.450Z,2.97
2024-04-22T22:15:21.302Z,2.81
2024-04-22T22:17:50.444Z,2.67
2024-04-22T22:20:21.659Z,2.52
2024-04-22T22:22:48.449Z,2.39
2024-04-22T22:25:18.117Z,2.11
2024-04-22T22:27:51.347Z,2.17
2024-04-22T22:30:22.159Z,2.28
2024-04-22T22:32:48.954Z,2.25
2024-04-22T22:35:18.726Z,2.24
2024-04-22T22:37:45.542Z,2.08
2024-04-22T22:40:15.092Z,1.97
2024-04-22T22:42:44.024Z,1.81
2024-04-22T22:45:16.113Z,1.58
2024-04-22T22:47:44.230Z,1.47
2024-04-22T22:50:13.903Z,1.36
2024-04-22T22:52:40.772Z,1.24
2024-04-22T22:55:10.207Z,1.13
2024-04-22T22:57:36.965Z,1.01
2024-04-22T23:00:07.246Z,1.01
2024-04-22T23:02:36.688Z,0.91
2024-04-22T23:05:06.310Z,0.90
2024-04-22T23:07:33.429Z,0.62
2024-04-22T23:10:02.817Z,0.86
2024-04-22T23:12:29.583Z,0.77
2024-04-22T23:14:59.183Z,0.70
2024-04-22T23:17:25.963Z,0.33
2024-04-22T23:19:58.213Z,0.63
2024-04-22T23:22:25.042Z,0.58
2024-04-22T23:24:54.637Z,0.42
2024-04-22T23:27:21.382Z,0.49
2024-04-22T23:29:51.681Z,0.44
2024-04-22T23:32:18.498Z,0.42
2024-04-22T23:34:47.920Z,0.29
2024-04-22T23:37:19.542Z,0.18
2024-04-22T23:39:49.242Z,0.13
2024-04-22T23:42:16.104Z,-0.03
2024-04-22T23:44:45.487Z,0.17
2024-04-22T23:47:12.331Z,0.13
2024-04-22T23:49:41.813Z,0.07
2024-04-22T23:52:09.818Z,0.12
2024-04-22T23:54:41.899Z,0.19
2024-04-22T23:57:08.745Z,-0.37
2024-04-22T23:59:38.129Z,0.18
